Time;durP1;ratioP1;P1;durP2;ratioP2;P2;SDS_P1;SDS_P2;PMS_P1;PMS_P2;Temp;Humidity;BMP_temperature;BMP_pressure;BME280_temperature;BME280_humidity;BME280_pressure;Samples;Min_cycle;Max_cycle;Signal;HPM_P1;HPM_P2
2023/02/01 00:00:04;;;;;;;15.93;2.58;;;;;;;5.82;82.89;102053.56;5019854;28;20048;-71
2023/02/01 00:02:29;;;;;;;20.73;3.28;;;;;;;5.83;82.50;102056.16;5044743;28;20056;-71
2023/02/01 00:04:55;;;;;;;17.67;3.35;;;;;;;5.83;82.58;102060.50;5055513;28;20045;-71
2023/02/01 00:07:20;;;;;;;13.75;2.40;;;;;;;5.84;81.85;102049.22;5039306;28;20102;-71
2023/02/01 00:09:45;;;;;;;16.67;2.50;;;;;;;5.85;82.31;102063.97;5037795;28;20227;-71
2023/02/01 00:12:11;;;;;;;19.98;3.97;;;;;;;5.85;82.00;102062.22;5053879;28;20348;-71
2023/02/01 00:14:39;;;;;;;11.65;2.22;;;;;;;5.85;81.88;102071.75;5049098;28;20356;-71
2023/02/01 00:17:06;;;;;;;27.70;2.92;;;;;;;5.85;81.38;102072.63;5037548;28;20045;-71
2023/02/01 00:19:32;;;;;;;20.08;2.88;;;;;;;5.85;81.60;102058.75;5025360;28;20031;-71
2023/02/01 00:21:57;;;;;;;24.67;3.58;;;;;;;5.84;81.46;102051.81;5043009;28;20041;-71
2023/02/01 00:24:23;;;;;;;23.40;3.60;;;;;;;5.83;81.59;102061.34;5042912;28;20051;-71
2023/02/01 00:26:48;;;;;;;22.35;3.40;;;;;;;5.82;81.38;102069.16;5047465;28;20175;-71
2023/02/01 00:29:16;;;;;;;14.52;2.78;;;;;;;5.84;80.72;102060.50;5024021;28;20104;-71
2023/02/01 00:31:42;;;;;;;19.20;2.93;;;;;;;5.84;80.69;102063.09;5057366;28;20028;-71
2023/02/01 00:34:12;;;;;;;23.05;3.45;;;;;;;5.84;80.57;102050.09;5054781;28;20305;-71
2023/02/01 00:36:37;;;;;;;12.13;2.53;;;;;;;5.84;80.78;102063.09;5037387;28;20025;-71
2023/02/01 00:39:03;;;;;;;18.70;3.08;;;;;;;5.84;81.01;102075.22;5022010;28;20037;-71
2023/02/01 00:41:28;;;;;;;17.08;2.88;;;;;;;5.84;81.28;102054.41;5056815;28;20040;-71
2023/02/01 00:43:53;;;;;;;13.75;2.17;;;;;;;5.83;81.55;102056.16;5055857;28;20052;-71
2023/02/01 00:46:21;;;;;;;18.88;3.67;;;;;;;5.83;81.28;102056.16;5036925;28;20250;-71
2023/02/01 00:48:47;;;;;;;28.67;3.90;;;;;;;5.82;81.75;102062.25;5037534;28;20045;-71
2023/02/01 00:51:16;;;;;;;23.42;3.90;;;;;;;5.82;80.93;102048.34;5037852;28;20029;-71
2023/02/01 00:53:41;;;;;;;22.40;3.38;;;;;;;5.82;80.64;102044.06;5020072;28;20067;-71
2023/02/01 00:56:07;;;;;;;21.52;2.80;;;;;;;5.83;81.18;102031.91;5056057;28;20236;-71
2023/02/01 00:58:33;;;;;;;13.73;2.80;;;;;;;5.83;81.45;102034.50;5056749;28;20271;-71
2023/02/01 01:01:22;;;;;;;20.13;3.15;;;;;;;5.84;81.63;102028.41;5040144;28;20182;-71
2023/02/01 01:03:58;;;;;;;19.85;3.70;;;;;;;5.86;81.39;102031.91;5037183;28;20041;-71
2023/02/01 01:06:29;;;;;;;24.65;2.47;;;;;;;5.86;81.64;102026.72;5037021;28;20033;-71
2023/02/01 01:08:56;;;;;;;21.92;3.47;;;;;;;5.86;81.55;102034.50;5037479;28;20044;-71
2023/02/01 01:11:25;;;;;;;27.90;2.95;;;;;;;5.87;81.18;102031.88;5019078;28;20495;-71
2023/02/01 01:13:52;;;;;;;19.70;3.08;;;;;;;5.88;81.45;102027.56;5031528;28;20033;-71
2023/02/01 01:16:20;;;;;;;19.60;3.20;;;;;;;5.88;81.78;102037.97;5028337;28;20041;-71
2023/02/01 01:18:46;;;;;;;18.15;2.80;;;;;;;5.88;81.78;102035.38;5056927;28;20100;-71
2023/02/01 01:21:13;;;;;;;28.25;3.33;;;;;;;5.88;82.35;102045.75;5036985;28;20255;-71
2023/02/01 01:23:38;;;;;;;23.77;3.75;;;;;;;5.90;82.36;102029.28;5040118;28;20064;-71
2023/02/01 01:26:09;;;;;;;28.48;3.33;;;;;;;5.93;82.54;102042.28;5037270;28;20328;-71
2023/02/01 01:28:35;;;;;;;22.58;3.60;;;;;;;5.96;82.48;102044.88;5054525;28;20100;-71
2023/02/01 01:31:00;;;;;;;19.23;3.20;;;;;;;5.99;82.62;102038.84;5056902;28;20032;-71
2023/02/01 01:33:25;;;;;;;25.83;3.03;;;;;;;5.99;82.87;102035.38;5039880;28;20033;-71
2023/02/01 01:35:51;;;;;;;26.10;3.42;;;;;;;5.98;83.21;102031.88;5052665;28;20071;-71
2023/02/01 01:38:16;;;;;;;23.92;3.05;;;;;;;5.99;83.47;102040.59;5056167;28;20032;-71
2023/02/01 01:40:46;;;;;;;24.80;3.67;;;;;;;5.99;83.66;102040.59;5041182;28;20037;-71
2023/02/01 01:43:16;;;;;;;21.55;3.35;;;;;;;5.97;83.91;102048.38;5049606;28;20078;-71
2023/02/01 01:45:42;;;;;;;21.20;3.42;;;;;;;5.96;84.03;102044.88;5054996;28;20327;-71
2023/02/01 01:48:29;;;;;;;27.80;4.10;;;;;;;5.96;84.16;102039.69;5044511;28;20037;-71
2023/02/01 01:51:02;;;;;;;18.02;3.28;;;;;;;5.96;84.13;102044.88;5036656;28;20045;-71
2023/02/01 01:53:33;;;;;;;22.88;3.53;;;;;;;5.96;84.14;102039.69;5050328;28;20041;-71
2023/02/01 01:56:00;;;;;;;26.52;3.60;;;;;;;5.93;84.49;102029.28;5056274;28;20044;-71
2023/02/01 01:58:28;;;;;;;22.33;3.50;;;;;;;5.93;84.76;102023.19;5037882;28;20084;-71
2023/02/01 02:00:54;;;;;;;18.45;3.85;;;;;;;5.94;84.84;102030.13;5036344;28;20245;-71
2023/02/01 02:03:23;;;;;;;28.48;3.60;;;;;;;5.95;84.72;102026.69;5051549;28;20317;-71
2023/02/01 02:05:50;;;;;;;23.77;3.63;;;;;;;5.95;84.72;102017.19;5049029;28;20052;-71
2023/02/01 02:08:20;;;;;;;19.65;3.10;;;;;;;5.96;84.86;102018.03;5053887;28;20346;-71
2023/02/01 02:11:01;;;;;;;28.52;4.05;;;;;;;5.96;85.07;102023.22;5056615;28;20040;-71
2023/02/01 02:13:34;;;;;;;19.33;3.95;;;;;;;5.97;85.38;102027.56;5047946;28;20045;-71
2023/02/01 02:16:14;;;;;;;17.83;3.13;;;;;;;5.98;85.38;102012.81;5039998;28;20029;-71
2023/02/01 02:19:35;;;;;;;32.67;4.20;;;;;;;5.97;85.30;102004.16;5053014;28;20409;-71
2023/02/01 02:22:10;;;;;;;15.57;3.17;;;;;;;5.98;85.27;102005.03;4959359;29;20446;-71
2023/02/01 02:25:03;;;;;;;25.48;3.95;;;;;;;5.96;85.08;101995.47;5035491;28;20057;-71
2023/02/01 02:27:51;;;;;;;22.33;4.07;;;;;;;5.97;84.99;102004.16;5042543;28;20056;-71
2023/02/01 02:30:35;;;;;;;24.08;4.28;;;;;;;5.98;84.23;102003.28;5059596;28;20481;-71
2023/02/01 02:33:15;;;;;;;21.17;3.95;;;;;;;5.98;84.65;102005.88;5053143;28;20041;-71
2023/02/01 02:35:56;;;;;;;18.77;3.67;;;;;;;5.98;84.77;102011.09;5040176;28;20067;-71
2023/02/01 02:38:33;;;;;;;23.05;3.50;;;;;;;5.98;84.81;101992.03;5048075;28;20074;-71
2023/02/01 02:47:26;;;;;;;26.13;3.40;;;;;;;5.98;85.24;102012.81;5051199;28;20091;-71
2023/02/01 03:04:17;;;;;;;29.33;4.03;;;;;;;6.03;84.63;101979.88;5038810;28;20348;-71
2023/02/01 03:06:43;;;;;;;26.27;3.65;;;;;;;6.03;85.16;101979.88;5058018;28;20110;-71
2023/02/01 03:09:17;;;;;;;15.80;3.33;;;;;;;6.02;85.00;101983.34;5048126;28;20033;-71
2023/02/01 03:14:35;;;;;;;17.27;3.78;;;;;;;6.00;85.19;101959.94;5052568;28;20068;-71
2023/02/01 03:17:25;;;;;;;23.27;2.97;;;;;;;5.98;85.33;101964.28;5058986;28;20327;-71
2023/02/01 03:19:53;;;;;;;29.27;3.38;;;;;;;5.95;85.44;101959.97;5043150;28;20044;-71
2023/02/01 03:22:24;;;;;;;23.70;3.55;;;;;;;5.96;85.35;101973.81;5044462;28;20208;-71
2023/02/01 03:25:01;;;;;;;15.57;3.83;;;;;;;5.96;85.47;101979.03;5058127;28;20267;-71
2023/02/01 03:27:33;;;;;;;19.75;2.95;;;;;;;5.94;85.49;101960.78;5052394;28;20340;-71
2023/02/01 03:30:07;;;;;;;27.63;3.47;;;;;;;5.93;85.33;101964.28;5040234;28;20096;-71
2023/02/01 03:32:58;;;;;;;23.98;3.85;;;;;;;5.91;85.14;101984.22;5058822;28;20033;-71
2023/02/01 03:35:25;;;;;;;29.15;5.15;;;;;;;5.90;84.73;101973.81;5040793;28;20276;-71
2023/02/01 03:37:56;;;;;;;18.75;3.85;;;;;;;5.90;85.21;101969.47;5040264;28;20032;-71
2023/02/01 03:40:22;;;;;;;20.45;3.58;;;;;;;5.90;85.32;101982.47;5038311;28;20256;-71
2023/02/01 03:42:54;;;;;;;21.60;3.83;;;;;;;5.89;85.09;101967.75;5043723;28;20363;-71
2023/02/01 03:45:31;;;;;;;19.42;3.55;;;;;;;5.89;84.96;101977.28;5057528;28;20056;-71
2023/02/01 03:48:00;;;;;;;21.17;4.28;;;;;;;5.89;84.92;101988.53;5052984;28;20363;-71
2023/02/01 03:50:27;;;;;;;25.70;4.13;;;;;;;5.89;85.18;101961.69;5038525;28;20384;-71
2023/02/01 03:53:01;;;;;;;20.27;4.40;;;;;;;5.89;85.28;101974.69;5042786;28;20053;-71
2023/02/01 03:55:28;;;;;;;29.90;3.42;;;;;;;5.88;85.39;101976.44;5042673;28;20070;-71
2023/02/01 03:58:03;;;;;;;25.05;3.25;;;;;;;5.87;85.08;101977.28;5057263;28;20049;-73
2023/02/01 04:00:29;;;;;;;12.52;3.30;;;;;;;5.85;85.12;101966.03;5042624;28;20068;-73
2023/02/01 04:02:54;;;;;;;19.42;3.47;;;;;;;5.85;84.81;101980.75;5046529;28;20044;-73
2023/02/01 04:05:21;;;;;;;19.15;3.20;;;;;;;5.85;84.06;101978.16;5057407;28;20232;-73
2023/02/01 04:07:46;;;;;;;24.85;3.05;;;;;;;5.85;83.92;101976.41;5038817;28;20033;-73
2023/02/01 04:10:13;;;;;;;20.38;3.53;;;;;;;5.85;83.78;101971.22;5038325;28;20056;-73
2023/02/01 04:12:39;;;;;;;19.85;3.25;;;;;;;5.85;83.65;101973.81;5042557;28;20324;-72
2023/02/01 04:15:05;;;;;;;22.35;3.45;;;;;;;5.86;82.64;101978.16;5058106;28;20071;-73
2023/02/01 04:17:31;;;;;;;20.55;3.42;;;;;;;5.88;82.86;101976.44;5053925;28;20340;-72
2023/02/01 04:19:56;;;;;;;26.30;3.47;;;;;;;5.90;83.16;101963.41;5017036;28;20038;-72
2023/02/01 04:22:22;;;;;;;17.02;2.55;;;;;;;5.92;83.28;101972.06;5021902;28;20610;-73
2023/02/01 04:24:47;;;;;;;20.10;3.70;;;;;;;5.92;83.72;101972.94;5057736;28;20360;-73
2023/02/01 04:27:13;;;;;;;16.63;2.70;;;;;;;5.93;83.89;101984.19;5045869;28;20474;-72
2023/02/01 04:29:38;;;;;;;15.75;3.83;;;;;;;5.94;83.92;101984.19;5040982;28;20082;-72
2023/02/01 04:32:04;;;;;;;19.17;3.38;;;;;;;5.93;83.93;101979.88;5057631;28;20056;-72
2023/02/01 04:34:30;;;;;;;20.70;2.88;;;;;;;5.92;84.13;101970.34;5054962;28;20266;-73
2023/02/01 04:36:55;;;;;;;20.85;2.95;;;;;;;5.92;84.21;101980.75;5050700;28;20060;-72
2023/02/01 04:39:20;;;;;;;17.15;3.20;;;;;;;5.92;84.17;101979.88;5056682;28;20032;-73
2023/02/01 04:41:46;;;;;;;25.98;4.13;;;;;;;5.92;83.89;101982.47;5037630;28;20037;-72
2023/02/01 04:44:17;;;;;;;15.00;3.28;;;;;;;5.93;84.07;101974.69;5019703;28;20168;-73
2023/02/01 04:46:42;;;;;;;19.58;3.95;;;;;;;5.93;84.12;101977.28;5056225;28;20037;-73
2023/02/01 04:49:09;;;;;;;19.58;3.30;;;;;;;5.93;84.29;101979.00;5058012;28;20095;-73
2023/02/01 04:51:34;;;;;;;23.48;3.15;;;;;;;5.93;83.88;101974.69;5039112;28;20045;-72
2023/02/01 04:54:00;;;;;;;18.67;3.38;;;;;;;5.92;84.23;101964.28;5037308;28;20087;-72
2023/02/01 04:56:25;;;;;;;18.50;2.85;;;;;;;5.93;84.19;101964.28;5056340;28;20051;-72
2023/02/01 04:58:50;;;;;;;19.10;4.10;;;;;;;5.92;84.29;101959.94;5057598;28;20040;-72
2023/02/01 05:01:16;;;;;;;13.32;3.53;;;;;;;5.90;84.37;101960.81;5038445;28;20104;-72
2023/02/01 05:03:41;;;;;;;22.23;3.28;;;;;;;5.90;84.46;101964.28;5019482;28;20115;-72
2023/02/01 05:06:07;;;;;;;19.27;3.28;;;;;;;5.87;84.35;101951.28;5052964;28;20056;-72
2023/02/01 05:08:33;;;;;;;26.50;3.25;;;;;;;5.86;84.63;101954.75;5054908;28;20318;-72
2023/02/01 05:10:58;;;;;;;21.90;3.83;;;;;;;5.84;84.15;101964.31;5038019;28;20018;-73
2023/02/01 05:16:08;;;;;;;20.45;3.28;;;;;;;5.80;84.76;101954.75;5047199;28;20224;-72
2023/02/01 05:18:33;;;;;;;27.42;4.28;;;;;;;5.79;84.92;101965.19;5056534;28;20036;-72
2023/02/01 05:20:59;;;;;;;14.80;2.83;;;;;;;5.77;84.93;101973.00;5048505;28;20122;-72
2023/02/01 05:23:24;;;;;;;16.75;2.90;;;;;;;5.75;85.00;101964.34;5041519;28;20028;-72
2023/02/01 05:25:50;;;;;;;20.77;3.50;;;;;;;5.74;85.35;101967.78;5039036;28;20211;-72
2023/02/01 05:28:15;;;;;;;25.50;3.25;;;;;;;5.71;85.46;101975.59;5052812;28;20251;-73
2023/02/01 05:30:40;;;;;;;20.70;3.65;;;;;;;5.70;85.65;101966.06;5036880;28;20037;-73
2023/02/01 05:33:06;;;;;;;18.75;3.60;;;;;;;5.69;85.42;101980.78;5038541;28;20044;-73
2023/02/01 05:35:32;;;;;;;18.70;2.83;;;;;;;5.68;85.80;101976.47;5031602;28;20310;-73
2023/02/01 05:37:57;;;;;;;15.90;2.88;;;;;;;5.68;86.27;101968.69;5036875;28;20037;-73
2023/02/01 05:40:23;;;;;;;20.80;3.17;;;;;;;5.69;86.28;101978.19;5056197;28;20271;-72
2023/02/01 05:42:48;;;;;;;26.70;4.32;;;;;;;5.69;86.37;101977.34;5037139;28;20260;-72
2023/02/01 05:45:14;;;;;;;24.20;3.65;;;;;;;5.68;86.28;101984.28;5036145;28;20091;-72
2023/02/01 05:47:39;;;;;;;18.88;3.17;;;;;;;5.68;86.81;101986.88;5052773;28;20397;-73
2023/02/01 05:50:05;;;;;;;28.63;4.15;;;;;;;5.69;87.11;101980.78;5056685;28;20040;-73
2023/02/01 05:52:32;;;;;;;16.65;2.80;;;;;;;5.68;86.66;101978.22;5040141;28;20024;-72
2023/02/01 05:54:57;;;;;;;19.63;3.40;;;;;;;5.67;86.48;101966.94;5036803;28;20037;-72
2023/02/01 05:57:22;;;;;;;17.33;3.17;;;;;;;5.68;86.24;101979.06;5049964;28;20067;-72
2023/02/01 05:59:48;;;;;;;23.38;3.80;;;;;;;5.67;86.22;101979.06;5056478;28;20036;-72
2023/02/01 06:02:15;;;;;;;22.45;4.00;;;;;;;5.68;86.52;101997.25;5044012;28;20330;-72
2023/02/01 06:04:40;;;;;;;15.70;2.95;;;;;;;5.68;86.36;101984.28;5036299;28;20119;-72
2023/02/01 06:07:07;;;;;;;21.73;3.95;;;;;;;5.68;86.52;101993.81;5046889;28;20321;-73
2023/02/01 06:09:33;;;;;;;21.15;3.80;;;;;;;5.68;86.67;101993.81;5038163;28;20044;-72
2023/02/01 06:12:00;;;;;;;27.13;3.83;;;;;;;5.67;86.52;101987.72;5047076;28;20068;-72
2023/02/01 06:14:26;;;;;;;20.05;3.10;;;;;;;5.67;86.98;101995.53;5036099;28;20045;-72
2023/02/01 06:16:51;;;;;;;19.23;3.30;;;;;;;5.68;86.98;101986.88;5054064;28;20053;-72
2023/02/01 06:19:17;;;;;;;26.40;3.90;;;;;;;5.67;87.29;101989.47;5047688;28;20057;-72
2023/02/01 06:21:42;;;;;;;21.98;3.90;;;;;;;5.69;86.97;101991.19;5036593;28;20348;-72
2023/02/01 06:24:08;;;;;;;20.67;3.35;;;;;;;5.69;86.97;101985.97;5036311;28;20045;-72
2023/02/01 06:26:33;;;;;;;22.10;2.95;;;;;;;5.69;87.24;101996.38;5047705;28;20092;-72
2023/02/01 06:28:59;;;;;;;19.83;3.47;;;;;;;5.70;86.83;101989.47;5036628;28;20101;-72
2023/02/01 06:31:25;;;;;;;22.42;3.20;;;;;;;5.71;86.90;101994.69;5048203;28;20048;-72
2023/02/01 06:33:51;;;;;;;20.77;3.47;;;;;;;5.72;86.39;101993.78;5056235;28;20044;-72
2023/02/01 06:36:18;;;;;;;21.70;3.20;;;;;;;5.72;86.22;101993.78;5044529;28;20057;-72
2023/02/01 06:38:44;;;;;;;14.98;3.35;;;;;;;5.74;85.58;101996.38;5036269;28;20116;-72
2023/02/01 06:41:09;;;;;;;22.58;3.65;;;;;;;5.75;85.78;101990.34;5037623;28;20052;-73
2023/02/01 06:43:35;;;;;;;14.55;2.90;;;;;;;5.76;85.61;102010.25;5035618;28;20064;-72
2023/02/01 06:46:03;;;;;;;15.25;3.08;;;;;;;5.79;85.10;101994.66;5046799;28;20036;-73
2023/02/01 06:48:29;;;;;;;19.47;3.90;;;;;;;5.80;85.75;101990.31;5050468;28;20044;-72
2023/02/01 06:50:54;;;;;;;28.45;4.57;;;;;;;5.79;85.72;101986.00;5035762;28;20475;-72
2023/02/01 06:53:20;;;;;;;17.60;3.55;;;;;;;5.79;85.89;101983.41;5035597;28;20045;-73
2023/02/01 06:56:00;;;;;;;23.00;3.78;;;;;;;5.79;85.80;101989.44;5043739;28;20243;-73
2023/02/01 06:58:33;;;;;;;20.25;2.38;;;;;;;5.79;85.61;101988.59;5055676;28;20306;-73
2023/02/01 07:01:04;;;;;;;26.05;3.88;;;;;;;5.80;86.00;101988.56;5050862;28;20037;-73
2023/02/01 07:03:29;;;;;;;17.83;3.78;;;;;;;5.79;85.90;101984.25;5059084;28;20033;-72
2023/02/01 07:05:58;;;;;;;21.52;3.03;;;;;;;5.81;85.82;101985.09;5050756;28;20112;-72
2023/02/01 07:08:24;;;;;;;19.17;4.10;;;;;;;5.80;86.28;101995.50;5038999;28;20029;-72
2023/02/01 07:10:50;;;;;;;27.73;3.97;;;;;;;5.79;86.36;101980.78;5042863;28;20226;-72
2023/02/01 07:13:15;;;;;;;19.85;3.08;;;;;;;5.80;86.39;101985.09;5042230;28;20082;-72
2023/02/01 07:15:40;;;;;;;21.27;3.13;;;;;;;5.79;86.62;101986.84;5058869;28;20376;-72
2023/02/01 07:18:06;;;;;;;24.23;4.00;;;;;;;5.77;86.57;101986.00;5041242;28;20041;-72
2023/02/01 07:20:31;;;;;;;26.15;3.67;;;;;;;5.77;86.44;101992.03;5038186;28;20055;-72
2023/02/01 07:22:57;;;;;;;13.70;2.72;;;;;;;5.77;86.29;101994.66;5054015;28;20048;-72
2023/02/01 07:25:23;;;;;;;17.23;3.13;;;;;;;5.77;86.28;101999.00;5058253;28;20041;-72
2023/02/01 07:27:48;;;;;;;18.05;2.80;;;;;;;5.77;86.58;101999.84;5042254;28;20068;-72
2023/02/01 07:30:14;;;;;;;15.82;2.92;;;;;;;5.77;86.68;101999.84;5038998;28;20041;-72
2023/02/01 07:32:39;;;;;;;21.77;4.18;;;;;;;5.77;86.39;102014.59;5051260;28;20082;-72
2023/02/01 07:35:05;;;;;;;26.58;3.45;;;;;;;5.78;86.93;102003.31;5058976;28;20037;-72
2023/02/01 07:37:30;;;;;;;16.98;3.35;;;;;;;5.78;86.80;102005.91;5056281;28;20049;-73
2023/02/01 07:39:56;;;;;;;20.45;2.85;;;;;;;5.79;86.53;102007.66;5058779;28;20359;-73
2023/02/01 07:42:21;;;;;;;16.45;3.22;;;;;;;5.79;86.53;102018.03;5041078;28;20032;-73
2023/02/01 07:44:47;;;;;;;18.00;3.35;;;;;;;5.79;86.94;102038.84;5042326;28;20096;-73
2023/02/01 07:47:12;;;;;;;15.30;3.33;;;;;;;5.79;86.90;102027.59;5041596;28;20052;-73
2023/02/01 07:49:37;;;;;;;22.13;3.42;;;;;;;5.80;86.80;102037.09;5047702;28;20033;-73
2023/02/01 07:52:03;;;;;;;22.90;3.60;;;;;;;5.78;86.73;102034.50;5045908;28;20104;-73
2023/02/01 07:54:28;;;;;;;14.50;2.72;;;;;;;5.79;86.64;102063.97;5038042;28;20359;-73
2023/02/01 07:56:53;;;;;;;14.38;3.35;;;;;;;5.79;86.52;102027.59;5057699;28;20043;-72
2023/02/01 07:59:19;;;;;;;21.40;3.10;;;;;;;5.79;86.53;102018.03;5043564;28;20045;-73
2023/02/01 08:01:44;;;;;;;18.38;2.55;;;;;;;5.79;86.39;102041.44;5021008;28;20044;-73
2023/02/01 08:04:12;;;;;;;19.25;3.30;;;;;;;5.80;86.61;102040.56;5058704;28;20297;-73
2023/02/01 08:06:38;;;;;;;13.63;3.00;;;;;;;5.79;86.84;102033.66;5055532;28;20225;-73
2023/02/01 08:09:04;;;;;;;18.65;3.50;;;;;;;5.81;86.64;102028.44;5055701;28;20033;-73
2023/02/01 08:11:30;;;;;;;17.98;2.88;;;;;;;5.80;87.07;102026.69;5054618;28;20048;-72
2023/02/01 08:13:56;;;;;;;22.55;3.40;;;;;;;5.80;87.06;102027.56;5039310;28;20205;-73
2023/02/01 08:16:23;;;;;;;15.75;2.70;;;;;;;5.82;87.17;102017.16;5035791;28;20029;-73
2023/02/01 08:18:49;;;;;;;18.27;2.85;;;;;;;5.81;86.69;102010.25;5037684;28;20616;-73
2023/02/01 08:21:17;;;;;;;20.45;3.35;;;;;;;5.81;86.69;102005.91;5036249;28;20088;-72
2023/02/01 08:23:44;;;;;;;21.42;4.22;;;;;;;5.83;86.34;102021.50;5037215;28;20017;-72
2023/02/01 08:26:22;;;;;;;21.75;4.07;;;;;;;5.85;86.48;102014.56;5035957;28;20310;-72
2023/02/01 08:28:51;;;;;;;18.20;3.17;;;;;;;5.86;86.38;102009.38;5035491;28;20400;-72
2023/02/01 08:31:19;;;;;;;10.48;2.40;;;;;;;5.86;86.49;102019.75;5033959;28;20225;-72
2023/02/01 08:33:49;;;;;;;15.23;3.30;;;;;;;5.87;86.53;102003.28;5037228;28;20033;-72
2023/02/01 08:36:15;;;;;;;27.02;3.15;;;;;;;5.88;86.64;101997.22;5034797;28;20576;-72
2023/02/01 08:38:41;;;;;;;20.90;3.85;;;;;;;5.89;86.84;101992.88;5021858;28;20063;-73
2023/02/01 08:41:12;;;;;;;16.35;3.13;;;;;;;5.89;86.98;101996.34;5034656;28;20041;-73
2023/02/01 08:43:38;;;;;;;18.33;3.30;;;;;;;5.89;87.15;102000.69;5036480;28;20045;-72
2023/02/01 08:46:04;;;;;;;18.30;2.70;;;;;;;5.90;87.24;102005.03;5036127;28;20241;-72
2023/02/01 08:48:30;;;;;;;24.88;3.25;;;;;;;5.91;87.39;102007.63;5036002;28;20041;-72
2023/02/01 08:50:56;;;;;;;17.58;2.80;;;;;;;5.92;87.61;102003.28;5036950;28;20033;-72
2023/02/01 08:53:22;;;;;;;20.13;3.50;;;;;;;5.94;87.59;102006.75;5040472;28;20040;-72
2023/02/01 08:55:47;;;;;;;17.25;3.40;;;;;;;5.96;87.52;101992.03;5038001;28;20108;-72
2023/02/01 08:58:16;;;;;;;29.73;3.45;;;;;;;5.98;87.75;101992.88;5041717;28;20074;-73
2023/02/01 09:00:44;;;;;;;23.25;3.30;;;;;;;6.01;87.17;102020.63;5038165;28;20060;-73
2023/02/01 09:03:10;;;;;;;25.23;3.90;;;;;;;6.04;87.03;101979.88;5040206;28;20327;-73
2023/02/01 09:05:36;;;;;;;22.52;3.33;;;;;;;6.06;87.00;101975.53;5043158;28;20036;-73
2023/02/01 09:08:01;;;;;;;19.30;3.15;;;;;;;6.08;87.06;101965.13;5041772;28;20124;-73
2023/02/01 09:10:27;;;;;;;24.95;3.72;;;;;;;6.10;86.90;101972.03;5040158;28;20029;-73
2023/02/01 09:12:52;;;;;;;23.67;3.25;;;;;;;6.13;86.49;101971.16;5042283;28;20032;-73
2023/02/01 09:15:17;;;;;;;17.67;3.25;;;;;;;6.14;86.59;101968.53;5039899;28;20025;-73
2023/02/01 09:17:43;;;;;;;27.83;3.78;;;;;;;6.15;86.18;101998.06;5031852;28;20053;-73
2023/02/01 09:20:09;;;;;;;32.45;3.63;;;;;;;6.18;86.48;101986.75;5048995;28;20128;-73
2023/02/01 09:22:34;;;;;;;22.73;3.28;;;;;;;6.19;86.15;101983.28;5034558;28;20218;-72
2023/02/01 09:25:00;;;;;;;25.42;3.45;;;;;;;6.19;86.52;101983.28;5040587;28;20096;-72
2023/02/01 09:27:25;;;;;;;22.45;3.88;;;;;;;6.22;86.09;101986.75;5035378;28;20041;-72
2023/02/01 09:29:52;;;;;;;16.65;3.15;;;;;;;6.24;86.55;101990.22;5034952;28;20300;-72
2023/02/01 09:32:22;;;;;;;13.30;2.60;;;;;;;6.24;86.17;101999.72;5035294;28;20040;-73
2023/02/01 09:34:48;;;;;;;15.27;2.88;;;;;;;6.25;85.62;101984.13;5036337;28;20063;-73
2023/02/01 09:37:14;;;;;;;24.25;3.65;;;;;;;6.26;85.38;102001.47;5035726;28;20051;-73
2023/02/01 09:39:42;;;;;;;14.55;2.78;;;;;;;6.28;85.02;101996.25;5035903;28;20060;-73
2023/02/01 09:43:01;;;;;;;22.23;3.00;;;;;;;6.29;84.96;102001.47;5035397;28;20115;-73
2023/02/01 09:45:41;;;;;;;14.68;3.05;;;;;;;6.30;84.93;102016.19;5039836;28;20371;-72
2023/02/01 09:48:21;;;;;;;22.42;2.80;;;;;;;6.33;84.41;101999.69;5032883;28;20103;-73
2023/02/01 09:50:54;;;;;;;14.20;2.90;;;;;;;6.34;84.43;102002.28;5036320;28;20374;-73
2023/02/01 09:53:34;;;;;;;20.80;3.63;;;;;;;6.34;84.46;102011.84;5036010;28;20047;-72
2023/02/01 09:56:06;;;;;;;18.42;3.97;;;;;;;6.35;84.24;102010.97;5035386;28;20344;-72
2023/02/01 09:58:42;;;;;;;19.52;3.40;;;;;;;6.36;84.06;102014.44;5028559;28;20215;-72
2023/02/01 10:01:19;;;;;;;10.52;2.45;;;;;;;6.34;84.01;102012.69;5038457;28;20238;-73
2023/02/01 10:03:45;;;;;;;19.67;2.95;;;;;;;6.34;84.39;102010.09;5035994;28;20214;-73
2023/02/01 10:06:25;;;;;;;24.80;4.47;;;;;;;6.34;84.03;102006.63;5032905;28;20033;-73
2023/02/01 10:09:12;;;;;;;17.73;2.95;;;;;;;6.34;84.49;102009.22;5036260;28;20079;-73
2023/02/01 10:12:04;;;;;;;21.13;3.92;;;;;;;6.33;84.60;102000.56;5031884;28;20121;-73
2023/02/01 10:14:39;;;;;;;19.63;3.20;;;;;;;6.33;84.94;102016.19;5033592;28;20048;-73
2023/02/01 10:18:00;;;;;;;22.38;3.00;;;;;;;6.34;84.53;102017.91;5033898;28;20033;-73
2023/02/01 10:20:38;;;;;;;25.23;3.58;;;;;;;6.35;84.48;102003.16;4949007;28;20047;-73
2023/02/01 10:23:37;;;;;;;20.90;3.33;;;;;;;6.36;84.26;102019.63;4949177;29;20066;-73
2023/02/01 10:26:17;;;;;;;21.42;3.70;;;;;;;6.35;84.33;102021.38;5023440;28;20180;-73
2023/02/01 10:28:44;;;;;;;15.82;2.70;;;;;;;6.36;84.70;102007.47;5032826;28;20364;-73
2023/02/01 10:31:10;;;;;;;21.52;3.55;;;;;;;6.36;84.86;102019.63;5034047;28;20096;-73
2023/02/01 10:33:42;;;;;;;18.50;2.92;;;;;;;6.37;85.18;102005.75;5036704;28;20099;-73
2023/02/01 10:36:07;;;;;;;27.80;3.38;;;;;;;6.38;85.30;102004.88;5041744;28;20037;-73
2023/02/01 10:38:33;;;;;;;24.63;4.65;;;;;;;6.40;85.11;102011.78;5038201;28;20355;-73
2023/02/01 10:41:10;;;;;;;22.23;3.33;;;;;;;6.43;85.21;102014.41;5038708;28;20037;-73
2023/02/01 10:43:36;;;;;;;25.60;3.13;;;;;;;6.45;85.37;101991.81;5037772;28;20037;-73
2023/02/01 10:46:01;;;;;;;23.20;3.42;;;;;;;6.46;85.21;101990.97;5038618;28;20339;-73
2023/02/01 10:48:27;;;;;;;16.67;3.35;;;;;;;6.48;85.59;102001.38;5042307;28;20047;-73
2023/02/01 10:51:11;;;;;;;24.13;3.10;;;;;;;6.50;85.12;101992.66;5020799;28;20043;-73
2023/02/01 10:53:43;;;;;;;24.88;4.03;;;;;;;6.56;84.56;101991.78;5037874;28;20047;-73
2023/02/01 10:56:11;;;;;;;22.17;3.45;;;;;;;6.61;84.28;101982.19;5037445;28;20265;-72
2023/02/01 10:58:43;;;;;;;14.43;2.55;;;;;;;6.61;84.35;101999.56;5045484;28;20049;-72
2023/02/01 11:01:16;;;;;;;21.92;2.95;;;;;;;6.62;84.42;101999.56;5045131;28;20040;-72
2023/02/01 11:03:57;;;;;;;16.63;2.80;;;;;;;6.63;83.91;101987.41;5036796;28;20061;-73
2023/02/01 11:06:35;;;;;;;17.58;2.80;;;;;;;6.64;83.94;101984.78;5038822;28;20068;-72
2023/02/01 11:09:09;;;;;;;33.13;4.10;;;;;;;6.66;83.98;101990.84;5036210;28;20037;-72
2023/02/01 11:11:59;;;;;;;13.27;2.42;;;;;;;6.67;84.10;101981.28;5036370;28;20356;-72
2023/02/01 11:14:24;;;;;;;16.33;2.65;;;;;;;6.69;83.54;102003.88;5034421;28;20025;-73
2023/02/01 11:17:13;;;;;;;21.17;3.22;;;;;;;6.69;83.35;101990.84;5037722;28;20072;-73
2023/02/01 11:19:38;;;;;;;18.67;3.50;;;;;;;6.71;83.42;101977.78;5034856;28;20430;-72
2023/02/01 11:22:03;;;;;;;19.38;3.53;;;;;;;6.72;83.76;101979.53;5037398;28;20061;-72
2023/02/01 11:24:34;;;;;;;28.08;3.53;;;;;;;6.71;83.58;102007.31;5033576;28;20075;-73
2023/02/01 11:27:02;;;;;;;20.50;4.10;;;;;;;6.73;83.40;101984.75;5037410;28;20213;-73
2023/02/01 11:29:39;;;;;;;20.67;3.20;;;;;;;6.74;83.92;101990.81;5035783;28;20029;-72
2023/02/01 11:32:04;;;;;;;17.92;2.83;;;;;;;6.74;83.30;101980.38;5035594;28;20057;-73
2023/02/01 11:34:45;;;;;;;21.25;3.38;;;;;;;6.74;83.35;101977.78;5034803;28;20341;-73
2023/02/01 11:37:25;;;;;;;22.88;3.15;;;;;;;6.74;83.42;101985.59;5031877;28;20079;-73
2023/02/01 11:40:16;;;;;;;22.98;2.88;;;;;;;6.76;83.05;101986.44;5033991;28;20115;-72
2023/02/01 11:42:59;;;;;;;23.58;3.47;;;;;;;6.77;83.65;101987.28;4991634;28;20056;-72
2023/02/01 11:45:30;;;;;;;26.45;3.78;;;;;;;6.78;83.30;101991.66;5035047;28;20056;-72
2023/02/01 11:47:57;;;;;;;23.20;2.92;;;;;;;6.80;83.17;101995.09;5036029;28;20431;-72
2023/02/01 11:50:54;;;;;;;22.02;3.47;;;;;;;6.81;83.29;101989.88;5037097;28;20320;-73
2023/02/01 11:53:54;;;;;;;28.13;3.70;;;;;;;6.81;83.72;102020.28;5035906;28;20408;-72
2023/02/01 11:56:25;;;;;;;22.77;3.60;;;;;;;6.80;83.31;101997.69;5030613;28;20096;-73
2023/02/01 11:59:19;;;;;;;22.85;3.13;;;;;;;6.80;83.09;101984.69;5030267;28;20351;-73
2023/02/01 12:02:12;;;;;;;22.13;3.28;;;;;;;6.81;83.10;101991.63;5036453;28;20060;-73